createdAt,value
2019-04-14T00:00:16.153Z,21.9
2019-04-14T00:01:06.410Z,21.9
2019-04-14T00:01:56.586Z,21.9
2019-04-14T00:02:45.474Z,21.9
2019-04-14T00:03:35.484Z,21.9
2019-04-14T00:04:26.811Z,21.9
2019-04-14T00:05:16.890Z,21.9
2019-04-14T00:06:06.842Z,21.9
2019-04-14T00:06:56.847Z,21.9
2019-04-14T00:07:47.048Z,21.9
2019-04-14T00:08:37.136Z,21.9
2019-04-14T00:09:27.172Z,21.9
2019-04-14T00:10:18.120Z,21.9
2019-04-14T00:11:08.210Z,21.9
2019-04-14T00:11:57.389Z,21.9
2019-04-14T00:12:47.525Z,21.9
2019-04-14T00:13:37.581Z,21.9
2019-04-14T00:14:27.691Z,21.9
2019-04-14T00:15:41.931Z,21.9
2019-04-14T00:16:12.273Z,21.9
2019-04-14T00:17:02.602Z,21.9
2019-04-14T00:17:52.341Z,21.9
2019-04-14T00:18:42.578Z,21.9
2019-04-14T00:19:32.688Z,21.9
2019-04-14T00:20:21.496Z,21.9
2019-04-14T00:21:12.924Z,21.9
2019-04-14T00:22:03.043Z,21.9
2019-04-14T00:22:53.119Z,21.9
2019-04-14T00:23:43.372Z,21.9
2019-04-14T00:24:33.472Z,21.9
2019-04-14T00:25:23.704Z,21.9
2019-04-14T00:26:12.510Z,21.9
2019-04-14T00:27:04.110Z,21.9
2019-04-14T00:27:54.251Z,21.9
2019-04-14T00:28:43.062Z,21.9
2019-04-14T00:29:33.282Z,21.9
2019-04-14T00:30:23.519Z,21.9
2019-04-14T00:31:13.559Z,21.9
2019-04-14T00:32:03.536Z,21.9
2019-04-14T00:32:53.617Z,21.9
2019-04-14T00:33:43.714Z,21.9
2019-04-14T00:34:33.585Z,21.9
2019-04-14T00:35:23.637Z,21.9
2019-04-14T00:36:13.794Z,21.9
2019-04-14T00:37:03.904Z,21.9
2019-04-14T00:37:53.889Z,21.9
2019-04-14T00:38:43.874Z,21.9
2019-04-14T00:39:33.603Z,21.9
2019-04-14T00:40:23.749Z,21.9
2019-04-14T00:41:14.254Z,21.9
2019-04-14T00:42:14.771Z,21.9
2019-04-14T00:43:04.838Z,21.9
2019-04-14T00:43:54.852Z,21.9
2019-04-14T00:44:44.916Z,21.9
2019-04-14T00:45:56.091Z,21.9
2019-04-14T00:46:25.234Z,21.9
2019-04-14T00:47:14.221Z,21.9
2019-04-14T00:48:19.021Z,21.9
2019-04-14T00:48:54.443Z,21.9
2019-04-14T00:49:44.516Z,21.9
2019-04-14T00:50:34.364Z,21.9
2019-04-14T00:51:24.387Z,21.9
2019-04-14T00:52:14.523Z,21.9
2019-04-14T00:53:05.430Z,21.9
2019-04-14T00:53:55.623Z,21.9
2019-04-14T00:54:45.311Z,21.9
2019-04-14T00:55:34.285Z,21.9
2019-04-14T00:56:24.431Z,21.9
2019-04-14T00:57:15.789Z,21.9
2019-04-14T00:58:04.571Z,21.9
2019-04-14T00:58:56.014Z,21.9
2019-04-14T00:59:46.259Z,21.9
2019-04-14T01:00:36.193Z,21.9
2019-04-14T01:01:26.462Z,21.9
2019-04-14T01:02:16.474Z,21.9
2019-04-14T01:03:06.833Z,21.9
2019-04-14T01:03:55.310Z,21.9
2019-04-14T01:04:45.427Z,21.9
2019-04-14T01:05:37.711Z,21.9
2019-04-14T01:06:25.585Z,21.9
2019-04-14T01:07:15.694Z,21.9
2019-04-14T01:08:05.726Z,21.9
2019-04-14T01:08:55.875Z,21.9
2019-04-14T01:09:46.268Z,21.9
2019-04-14T01:10:35.382Z,21.9
2019-04-14T01:11:26.990Z,21.9
2019-04-14T01:12:16.987Z,21.9
2019-04-14T01:13:12.706Z,21.9
2019-04-14T01:13:56.952Z,21.9
2019-04-14T01:14:47.301Z,21.9
2019-04-14T01:16:06.891Z,21.9
2019-04-14T01:16:45.667Z,21.9
2019-04-14T01:17:35.734Z,21.9
2019-04-14T01:18:26.002Z,21.9
2019-04-14T01:19:15.307Z,21.9
2019-04-14T01:20:05.611Z,21.9
2019-04-14T01:20:56.142Z,21.9
2019-04-14T01:21:46.194Z,21.9
2019-04-14T01:22:35.865Z,21.9
2019-04-14T01:23:26.010Z,21.9
2019-04-14T01:24:16.264Z,21.9
2019-04-14T01:25:06.340Z,21.9
2019-04-14T01:25:56.375Z,21.9
2019-04-14T01:26:46.271Z,21.9
2019-04-14T01:27:36.273Z,21.9
2019-04-14T01:28:25.124Z,21.9
2019-04-14T01:29:15.154Z,21.9
2019-04-14T01:30:06.588Z,21.9
2019-04-14T01:30:56.571Z,21.9
2019-04-14T01:31:45.432Z,21.9
2019-04-14T01:32:37.155Z,21.9
2019-04-14T01:33:27.151Z,21.9
2019-04-14T01:34:17.224Z,21.9
2019-04-14T01:35:07.430Z,21.9
2019-04-14T01:35:57.314Z,21.9
2019-04-14T01:36:46.069Z,21.9
2019-04-14T01:37:37.510Z,21.9
2019-04-14T01:38:27.515Z,21.9
2019-04-14T01:39:17.542Z,21.9
2019-04-14T01:40:07.415Z,21.9
2019-04-14T01:40:57.666Z,21.9
2019-04-14T01:41:46.383Z,21.9
2019-04-14T01:42:37.508Z,21.9
2019-04-14T01:43:27.705Z,21.9
2019-04-14T01:44:17.699Z,21.9
2019-04-14T01:45:06.479Z,21.9
2019-04-14T01:46:22.901Z,21.9
2019-04-14T01:46:58.714Z,21.9
2019-04-14T01:47:47.187Z,21.9
2019-04-14T01:48:37.222Z,21.9
2019-04-14T01:49:27.418Z,21.9
2019-04-14T01:50:17.403Z,21.9
2019-04-14T01:51:07.627Z,21.9
2019-04-14T01:51:57.556Z,21.9
2019-04-14T01:52:47.673Z,21.9
2019-04-14T01:53:37.837Z,21.9
2019-04-14T01:54:27.688Z,21.9
2019-04-14T01:55:17.735Z,21.9
2019-04-14T01:56:06.310Z,21.9
2019-04-14T01:56:57.914Z,21.9
2019-04-14T01:57:48.136Z,21.9
2019-04-14T01:58:36.832Z,21.9
2019-04-14T01:59:28.319Z,21.9
2019-04-14T02:00:17.037Z,21.9
2019-04-14T02:01:08.306Z,21.9
2019-04-14T02:01:58.676Z,21.9
2019-04-14T02:02:48.500Z,21.9
2019-04-14T02:03:37.391Z,21.9
2019-04-14T02:04:28.810Z,21.9
2019-04-14T02:05:17.554Z,21.9
2019-04-14T02:06:07.834Z,21.9
2019-04-14T02:06:59.188Z,21.9
2019-04-14T02:07:49.385Z,21.9
2019-04-14T02:08:39.332Z,21.9
2019-04-14T02:09:29.368Z,21.9
2019-04-14T02:10:19.378Z,21.9
2019-04-14T02:11:09.429Z,21.9
2019-04-14T02:11:59.477Z,21.9
2019-04-14T02:12:49.507Z,21.9
2019-04-14T02:13:39.568Z,21.9
2019-04-14T02:14:28.489Z,21.9
2019-04-14T02:15:18.679Z,21.9
2019-04-14T02:16:39.320Z,21.9
2019-04-14T02:17:26.851Z,21.9
2019-04-14T02:18:16.896Z,21.9
2019-04-14T02:19:06.914Z,21.9
2019-04-14T02:19:57.201Z,21.9
2019-04-14T02:20:47.331Z,21.9
2019-04-14T02:21:37.226Z,21.9
2019-04-14T02:22:27.127Z,21.9
2019-04-14T02:23:17.573Z,21.9
2019-04-14T02:24:07.565Z,21.9
2019-04-14T02:24:57.557Z,21.9
2019-04-14T02:25:47.676Z,21.9
2019-04-14T02:26:37.807Z,21.9
2019-04-14T02:27:27.483Z,21.9
2019-04-14T02:28:17.680Z,21.9
2019-04-14T02:29:06.279Z,21.9
2019-04-14T02:29:58.091Z,21.9
2019-04-14T02:39:38.290Z,21.9
2019-04-14T02:54:43.329Z,21.9
2019-04-14T03:09:07.498Z,21.9
2019-04-14T03:23:40.130Z,21.9
2019-04-14T03:52:31.113Z,21.9
2019-04-14T03:56:29.893Z,21.9
2019-04-14T03:57:21.429Z,21.9
2019-04-14T03:58:14.570Z,21.9
2019-04-14T03:59:00.026Z,22
2019-04-14T03:59:50.451Z,21.9
2019-04-14T04:00:40.511Z,21.9
2019-04-14T04:01:30.125Z,21.9
2019-04-14T04:02:20.354Z,21.9
2019-04-14T04:03:09.263Z,21.9
2019-04-14T04:04:00.650Z,22
2019-04-14T04:04:49.858Z,21.9
2019-04-14T04:05:41.240Z,21.9
2019-04-14T04:06:31.252Z,21.9
2019-04-14T04:07:19.724Z,21.9
2019-04-14T04:08:11.380Z,21.9
2019-04-14T04:09:01.782Z,22
2019-04-14T04:09:51.808Z,21.9
2019-04-14T04:10:40.727Z,21.9
2019-04-14T04:11:32.187Z,21.9
2019-04-14T04:12:22.446Z,21.9
2019-04-14T04:13:12.607Z,22
2019-04-14T04:14:01.364Z,21.9
2019-04-14T04:14:51.543Z,22
2019-04-14T04:15:41.665Z,21.9
2019-04-14T04:16:31.645Z,21.9
2019-04-14T04:17:21.660Z,21.9
2019-04-14T04:18:11.787Z,21.9
2019-04-14T04:19:16.445Z,22
2019-04-14T04:19:51.937Z,21.9
2019-04-14T04:20:41.745Z,22
2019-04-14T04:21:31.679Z,21.9
2019-04-14T04:22:22.084Z,22
2019-04-14T04:23:11.706Z,21.9
2019-04-14T04:24:02.129Z,22
2019-04-14T04:24:52.119Z,21.9
2019-04-14T04:25:42.151Z,22
2019-04-14T04:26:30.664Z,22
2019-04-14T04:27:22.145Z,21.9
2019-04-14T04:28:12.381Z,21.9
2019-04-14T04:29:02.723Z,22
2019-04-14T04:29:52.666Z,22
2019-04-14T04:30:41.246Z,22
2019-04-14T04:31:32.597Z,21.9
2019-04-14T04:32:22.914Z,22
2019-04-14T04:33:11.687Z,22
2019-04-14T04:34:01.786Z,22
2019-04-14T04:34:53.131Z,22
2019-04-14T04:35:43.542Z,22
2019-04-14T04:36:31.714Z,22
2019-04-14T04:37:23.506Z,22
2019-04-14T04:38:13.786Z,22
2019-04-14T04:39:02.538Z,22
2019-04-14T04:39:52.531Z,22
2019-04-14T04:40:43.924Z,22
2019-04-14T04:41:33.903Z,22
2019-04-14T04:42:22.696Z,22
2019-04-14T04:43:13.257Z,22
2019-04-14T04:44:04.769Z,22
2019-04-14T04:44:53.486Z,22
2019-04-14T04:45:43.615Z,22
2019-04-14T04:46:35.066Z,22
2019-04-14T04:47:23.825Z,22
2019-04-14T04:48:15.120Z,22
2019-04-14T04:49:24.139Z,22
2019-04-14T04:49:55.351Z,22
2019-04-14T04:50:45.222Z,22
2019-04-14T04:51:34.198Z,22.1
2019-04-14T04:52:24.188Z,22.1
2019-04-14T04:53:14.285Z,22.1
2019-04-14T04:54:04.385Z,22.1
2019-04-14T04:54:54.343Z,22.1
2019-04-14T04:55:44.400Z,22.1
2019-04-14T04:56:34.051Z,22.1
2019-04-14T04:57:24.200Z,22.1
2019-04-14T04:58:13.258Z,22.1
2019-04-14T04:59:05.338Z,22.1
2019-04-14T04:59:56.041Z,22.1
2019-04-14T05:00:52.301Z,22.1
2019-04-14T05:01:34.651Z,22.1
2019-04-14T05:02:24.942Z,22.1
2019-04-14T05:03:15.092Z,22.1
2019-04-14T05:04:04.577Z,22.1
2019-04-14T05:04:54.496Z,22.1
2019-04-14T05:05:45.408Z,22.1
2019-04-14T05:06:35.118Z,22.1
2019-04-14T05:07:23.649Z,22.1
2019-04-14T05:08:15.133Z,22.1
2019-04-14T05:09:05.530Z,22.1
2019-04-14T05:09:55.570Z,22.1
2019-04-14T05:10:44.336Z,22.1
2019-04-14T05:11:34.780Z,22.1
2019-04-14T05:12:26.241Z,22.1
2019-04-14T05:13:14.826Z,22.1
2019-04-14T05:14:06.476Z,22.1
2019-04-14T05:14:55.189Z,22.1
2019-04-14T05:15:46.501Z,22.1
2019-04-14T05:16:36.448Z,22.1
2019-04-14T05:17:26.099Z,22.1
2019-04-14T05:18:15.583Z,22.1
2019-04-14T05:19:32.936Z,22.1
2019-04-14T05:20:03.015Z,22.1
2019-04-14T05:20:53.167Z,22.1
2019-04-14T05:21:43.002Z,22.1
2019-04-14T05:22:33.153Z,22.1
2019-04-14T05:23:23.404Z,22.1
2019-04-14T05:24:12.111Z,22.1
2019-04-14T05:25:03.487Z,22.1
2019-04-14T05:25:53.740Z,22.1
2019-04-14T05:26:43.767Z,22.1
2019-04-14T05:27:32.403Z,22.1
2019-04-14T05:28:22.603Z,22.1
2019-04-14T05:29:12.338Z,22.1
2019-04-14T05:30:02.645Z,22.1
2019-04-14T05:30:53.005Z,22.1
2019-04-14T05:31:42.540Z,22.1
2019-04-14T05:32:32.809Z,22.1
2019-04-14T05:33:22.809Z,22.1
2019-04-14T05:34:12.719Z,22.1
2019-04-14T05:35:03.034Z,22.1
2019-04-14T05:35:53.074Z,22.1
2019-04-14T05:36:41.620Z,22.1
2019-04-14T05:37:33.220Z,22.1
2019-04-14T05:38:23.514Z,22.1
2019-04-14T05:39:13.491Z,22.1
2019-04-14T05:40:03.667Z,22.1
2019-04-14T05:40:53.887Z,22.2
2019-04-14T05:42:14.736Z,22.1
2019-04-14T05:42:49.356Z,22.1
2019-04-14T05:43:58.082Z,22.2
2019-04-14T05:44:28.239Z,22.1
2019-04-14T05:45:18.380Z,22.2
2019-04-14T05:46:09.620Z,22.1
2019-04-14T05:46:59.969Z,22.1
2019-04-14T05:47:49.996Z,22.2
2019-04-14T05:48:40.276Z,22.2
2019-04-14T05:49:50.015Z,22.2
2019-04-14T05:50:18.800Z,22.2
2019-04-14T05:51:09.002Z,22.2
2019-04-14T05:51:59.069Z,22.2
2019-04-14T05:52:47.927Z,22.2
2019-04-14T05:53:37.974Z,22.2
2019-04-14T05:54:29.553Z,22.2
2019-04-14T05:55:18.386Z,22.2
2019-04-14T05:56:08.412Z,22.3
2019-04-14T05:57:00.012Z,22.2
2019-04-14T05:57:50.154Z,22.2
2019-04-14T05:58:38.989Z,22.2
2019-04-14T05:59:30.659Z,22.3
2019-04-14T06:00:21.145Z,22.3
2019-04-14T06:01:09.451Z,22.3
2019-04-14T06:01:59.884Z,22.3
2019-04-14T06:02:50.531Z,22.3
2019-04-14T06:05:01.411Z,22.3
2019-04-14T06:05:49.752Z,22.3
2019-04-14T06:06:39.544Z,22.3
2019-04-14T06:07:29.611Z,22.3
2019-04-14T06:08:19.656Z,22.3
2019-04-14T06:09:09.723Z,22.3
2019-04-14T06:10:00.047Z,22.3
2019-04-14T06:10:50.124Z,22.3
2019-04-14T06:11:39.906Z,22.3
2019-04-14T06:12:30.224Z,22.3
2019-04-14T06:13:20.033Z,22.3
2019-04-14T06:14:10.071Z,22.3
2019-04-14T06:15:00.408Z,22.3
2019-04-14T06:15:50.461Z,22.2
2019-04-14T06:16:40.532Z,22.1
2019-04-14T06:17:30.344Z,22
2019-04-14T06:18:20.378Z,21.9
2019-04-14T06:19:10.708Z,21.9
2019-04-14T06:20:00.783Z,21.8
2019-04-14T06:20:50.840Z,21.8
2019-04-14T06:21:40.904Z,21.8
2019-04-14T06:22:30.678Z,21.7
2019-04-14T06:23:21.025Z,21.6
2019-04-14T06:24:11.088Z,21.6
2019-04-14T06:25:00.868Z,21.5
2019-04-14T06:25:51.202Z,21.4
2019-04-14T06:26:41.299Z,21.3
2019-04-14T06:27:31.325Z,21.3
2019-04-14T06:28:21.373Z,21.2
2019-04-14T06:29:11.438Z,21.2
2019-04-14T06:30:01.500Z,21.2
2019-04-14T06:30:51.302Z,21.2
2019-04-14T06:31:41.624Z,21.2
2019-04-14T06:32:31.685Z,21.3
2019-04-14T06:33:21.480Z,21.3
2019-04-14T06:34:11.257Z,21.3
2019-04-14T06:35:01.859Z,21.3
2019-04-14T06:35:51.927Z,21.2
2019-04-14T06:36:41.981Z,21.2
2019-04-14T06:40:52.292Z,21.2
2019-04-14T06:41:42.364Z,21.3
2019-04-14T06:42:32.406Z,21.3
2019-04-14T06:43:22.486Z,21.3
2019-04-14T06:44:12.254Z,21.4
2019-04-14T06:45:02.326Z,21.4
2019-04-14T06:45:52.657Z,21.4
2019-04-14T06:46:42.714Z,21.4
2019-04-14T06:47:32.489Z,21.5
2019-04-14T06:48:22.563Z,21.5
2019-04-14T06:49:12.893Z,21.5
2019-04-14T06:50:02.691Z,21.6
2019-04-14T06:50:53.016Z,21.6
2019-04-14T06:51:42.810Z,21.6
2019-04-14T06:52:32.873Z,21.6
2019-04-14T06:53:23.195Z,21.6
2019-04-14T06:54:12.984Z,21.6
2019-04-14T06:55:03.325Z,21.6
2019-04-14T06:55:55.724Z,21.6
2019-04-14T06:56:43.439Z,21.6
2019-04-14T06:57:33.285Z,21.7
2019-04-14T06:58:23.558Z,21.7
2019-04-14T06:59:13.358Z,21.7
2019-04-14T07:00:03.723Z,21.8
2019-04-14T07:00:53.469Z,21.7
2019-04-14T07:01:43.811Z,21.7
2019-04-14T07:02:33.868Z,21.8
2019-04-14T07:04:59.673Z,21.8
2019-04-14T07:05:49.720Z,21.8
2019-04-14T07:06:39.760Z,21.8
2019-04-14T07:07:29.545Z,21.8
2019-04-14T07:08:19.603Z,21.8
2019-04-14T07:09:09.471Z,21.8
2019-04-14T07:10:00.007Z,21.8
2019-04-14T07:10:49.786Z,21.8
2019-04-14T07:11:39.853Z,21.8
2019-04-14T07:12:30.181Z,21.8
2019-04-14T07:13:20.789Z,21.9
2019-04-14T07:14:10.302Z,21.9
2019-04-14T07:15:00.078Z,21.9
2019-04-14T07:15:50.433Z,21.9
2019-04-14T07:16:40.490Z,21.9
2019-04-14T07:17:30.534Z,21.9
2019-04-14T07:18:20.075Z,21.9
2019-04-14T07:19:10.661Z,21.9
2019-04-14T07:20:03.475Z,21.9
2019-04-14T07:20:50.513Z,21.9
2019-04-14T07:21:40.352Z,21.9
2019-04-14T07:22:30.626Z,21.9
2019-04-14T07:23:20.439Z,22
2019-04-14T07:24:10.756Z,22
2019-04-14T07:25:01.092Z,22
2019-04-14T07:25:51.144Z,22
2019-04-14T07:26:41.204Z,22
2019-04-14T07:27:31.272Z,22
2019-04-14T07:28:21.321Z,22
2019-04-14T07:29:11.389Z,22
2019-04-14T07:30:01.189Z,22
2019-04-14T07:30:51.509Z,22
2019-04-14T07:31:41.575Z,22.1
2019-04-14T07:32:31.624Z,22.1
2019-04-14T07:33:21.694Z,22.1
2019-04-14T07:34:11.481Z,22.1
2019-04-14T07:35:01.829Z,22.1
2019-04-14T07:35:51.883Z,22.1
2019-04-14T07:36:41.949Z,22.1
2019-04-14T07:37:32.021Z,22.1
2019-04-14T07:38:21.817Z,22.1
2019-04-14T07:39:12.129Z,22.1
2019-04-14T07:40:01.942Z,22.1
2019-04-14T07:40:52.319Z,22.1
2019-04-14T07:41:42.041Z,22.1
2019-04-14T07:42:32.377Z,22.1
2019-04-14T07:43:22.433Z,22.1
2019-04-14T07:44:15.223Z,22.1
2019-04-14T07:45:02.581Z,22.1
2019-04-14T07:45:52.631Z,22.1
2019-04-14T07:46:42.700Z,22.1
2019-04-14T07:47:32.749Z,22.1
2019-04-14T07:48:22.534Z,22.1
2019-04-14T07:49:12.598Z,22.1
2019-04-14T07:50:15.809Z,22.1
2019-04-14T07:50:52.991Z,22.1
2019-04-14T07:51:42.830Z,22.1
2019-04-14T07:52:32.850Z,22.1
2019-04-14T07:53:23.175Z,22.1
2019-04-14T07:54:13.239Z,22.1
2019-04-14T07:55:03.018Z,22.1
2019-04-14T07:55:53.382Z,22.1
2019-04-14T07:56:43.195Z,22.1
2019-04-14T07:57:33.201Z,22.1
2019-04-14T07:58:23.536Z,22.1
2019-04-14T07:59:13.607Z,22.1
2019-04-14T08:00:03.398Z,22.1
2019-04-14T08:00:53.167Z,22.1
2019-04-14T08:01:43.783Z,22.1
2019-04-14T08:02:33.575Z,22.1
2019-04-14T08:03:23.635Z,22.1
2019-04-14T08:04:13.692Z,22.1
2019-04-14T08:05:04.045Z,22.2
2019-04-14T08:05:54.077Z,22.1
2019-04-14T08:06:44.165Z,22.1
2019-04-14T08:07:34.207Z,22.1
2019-04-14T08:08:24.272Z,22.2
2019-04-14T08:09:14.321Z,22.2
2019-04-14T08:10:04.392Z,22.2
2019-04-14T08:10:54.169Z,22.2
2019-04-14T08:11:44.264Z,22.2
2019-04-14T08:12:36.322Z,22.2
2019-04-14T08:13:24.631Z,22.2
2019-04-14T08:14:14.704Z,22.2
2019-04-14T08:15:04.768Z,22.2
2019-04-14T08:15:54.264Z,22.3
2019-04-14T08:16:44.877Z,22.3
2019-04-14T08:17:34.941Z,22.3
2019-04-14T08:18:25.014Z,22.3
2019-04-14T08:19:15.064Z,22.3
2019-04-14T08:20:04.877Z,22.3
2019-04-14T08:20:55.191Z,22.3
2019-04-14T08:21:44.964Z,22.3
2019-04-14T08:22:35.335Z,22.3
2019-04-14T08:23:25.086Z,22.3
2019-04-14T08:24:15.426Z,22.3
2019-04-14T08:25:04.942Z,22.3
2019-04-14T08:25:55.541Z,22.3
2019-04-14T08:26:45.658Z,22.3
2019-04-14T08:27:35.671Z,22.3
2019-04-14T08:28:25.728Z,22.3
2019-04-14T08:29:15.531Z,22.4
2019-04-14T08:30:05.864Z,22.3
2019-04-14T08:30:55.966Z,22.3
2019-04-14T08:31:45.976Z,22.4
2019-04-14T08:32:36.058Z,22.3
2019-04-14T08:33:26.098Z,22.4
2019-04-14T08:34:16.148Z,22.4
2019-04-14T08:35:05.943Z,22.4
2019-04-14T08:35:56.289Z,22.4
2019-04-14T08:36:46.348Z,22.4
2019-04-14T08:37:36.408Z,22.4
2019-04-14T08:38:26.480Z,22.4
2019-04-14T08:39:16.237Z,22.4
2019-04-14T08:40:06.583Z,22.4
2019-04-14T08:40:56.640Z,22.4
2019-04-14T08:41:46.702Z,22.4
2019-04-14T08:42:36.765Z,22.4
2019-04-14T08:43:26.844Z,22.4
2019-04-14T08:44:16.876Z,22.4
2019-04-14T08:45:06.947Z,22.4
2019-04-14T08:45:56.740Z,22.4
2019-04-14T08:46:46.797Z,22.4
2019-04-14T08:47:36.921Z,22.4
2019-04-14T08:48:27.200Z,22.4
2019-04-14T08:49:17.250Z,22.4
2019-04-14T08:50:07.318Z,22.4
2019-04-14T08:50:57.378Z,22.4
2019-04-14T08:51:47.165Z,22.4
2019-04-14T08:52:37.219Z,22.4
2019-04-14T08:53:27.557Z,22.4
2019-04-14T08:54:17.355Z,22.4
2019-04-14T08:55:07.423Z,22.4
2019-04-14T08:55:57.739Z,22.4
2019-04-14T08:56:47.552Z,22.4
2019-04-14T08:57:37.871Z,22.4
2019-04-14T08:58:27.646Z,22.4
2019-04-14T08:59:17.734Z,22.4
2019-04-14T09:00:08.045Z,22.4
2019-04-14T09:00:58.114Z,22.4
2019-04-14T09:01:48.201Z,22.4
2019-04-14T09:02:37.961Z,22.4
2019-04-14T09:03:28.293Z,22.4
2019-04-14T09:04:18.353Z,22.4
2019-04-14T09:05:08.421Z,22.4
2019-04-14T09:05:57.926Z,22.4
2019-04-14T09:06:48.270Z,22.4
2019-04-14T09:07:38.326Z,22.4
2019-04-14T09:08:28.378Z,22.4
2019-04-14T09:09:18.448Z,22.4
2019-04-14T09:10:08.588Z,22.4
2019-04-14T09:10:58.831Z,22.4
2019-04-14T09:11:48.898Z,22.4
2019-04-14T09:12:38.696Z,22.4
2019-04-14T09:13:29.091Z,22.4
2019-04-14T09:14:18.814Z,22.4
2019-04-14T09:15:08.913Z,22.4
2019-04-14T09:15:59.228Z,22.4
2019-04-14T09:16:49.258Z,22.4
2019-04-14T09:17:39.061Z,22.4
2019-04-14T09:18:29.450Z,22.4
2019-04-14T09:19:19.212Z,22.4
2019-04-14T09:20:09.295Z,22.4
2019-04-14T09:20:59.303Z,22.4
2019-04-14T09:21:49.627Z,22.4
2019-04-14T09:22:39.483Z,22.4
2019-04-14T09:23:29.765Z,22.4
2019-04-14T09:24:19.535Z,22.4
2019-04-14T09:25:09.882Z,22.4
2019-04-14T09:25:59.949Z,22.4
2019-04-14T09:26:49.720Z,22.4
2019-04-14T09:27:39.790Z,22.4
2019-04-14T09:28:30.110Z,22.4
2019-04-14T09:29:20.189Z,22.4
2019-04-14T09:30:10.240Z,22.4
2019-04-14T09:31:00.307Z,22.4
2019-04-14T09:31:50.380Z,22.4
2019-04-14T09:32:40.472Z,22.4
2019-04-14T09:33:30.497Z,22.4
2019-04-14T09:34:20.544Z,22.4
2019-04-14T09:35:10.346Z,22.4
2019-04-14T09:36:00.669Z,22.4
2019-04-14T09:36:50.735Z,22.4
2019-04-14T09:37:40.782Z,22.4
2019-04-14T09:38:30.850Z,22.4
2019-04-14T09:39:20.911Z,22.4
2019-04-14T09:40:10.687Z,22.4
2019-04-14T09:41:01.037Z,22.4
2019-04-14T09:41:50.811Z,22.4
2019-04-14T09:42:40.889Z,22.4
2019-04-14T09:43:30.942Z,22.4
2019-04-14T09:44:21.282Z,22.4
2019-04-14T09:45:11.334Z,22.4
2019-04-14T09:46:01.402Z,22.4
2019-04-14T09:46:51.202Z,22.4
2019-04-14T09:47:41.241Z,22.4
2019-04-14T09:48:31.316Z,22.4
2019-04-14T09:49:21.369Z,22.4
2019-04-14T09:50:11.428Z,22.4
2019-04-14T09:51:05.966Z,22.4
2019-04-14T09:51:51.818Z,22.4
2019-04-14T09:52:41.639Z,22.4
2019-04-14T09:53:31.673Z,22.4
2019-04-14T09:54:22.004Z,22.4
2019-04-14T09:55:12.073Z,22.4
2019-04-14T09:56:02.123Z,22.4
2019-04-14T09:56:52.247Z,22.4
2019-04-14T09:57:42.033Z,22.4
2019-04-14T09:58:32.308Z,22.4
2019-04-14T09:59:22.388Z,22.4
2019-04-14T10:00:12.428Z,22.4
2019-04-14T10:01:02.528Z,22.4
2019-04-14T10:01:52.271Z,22.4
2019-04-14T10:02:42.355Z,22.4
2019-04-14T10:03:32.457Z,22.4
2019-04-14T10:05:59.588Z,22.4
2019-04-14T10:06:49.715Z,22.4
2019-04-14T10:07:39.458Z,22.4
2019-04-14T10:08:29.412Z,22.4
2019-04-14T10:09:19.775Z,22.4
2019-04-14T10:10:09.869Z,22.4
2019-04-14T10:10:59.598Z,22.4
2019-04-14T10:11:56.993Z,22.4
2019-04-14T10:12:39.998Z,22.4
2019-04-14T10:13:30.047Z,22.4
2019-04-14T10:14:19.569Z,22.4
2019-04-14T10:15:10.167Z,22.3
2019-04-14T10:15:59.979Z,22.4
2019-04-14T10:16:50.287Z,22.4
2019-04-14T10:17:39.836Z,22.4
2019-04-14T10:18:30.420Z,22.4
2019-04-14T10:19:20.203Z,22.3
2019-04-14T10:20:10.533Z,22.4
2019-04-14T10:21:00.592Z,22.3
2019-04-14T10:21:50.377Z,22.4
2019-04-14T10:22:40.730Z,22.4
2019-04-14T10:23:30.774Z,22.3
2019-04-14T10:24:20.569Z,22.4
2019-04-14T10:25:10.907Z,22.3
2019-04-14T10:26:00.970Z,22.3
2019-04-14T10:26:51.021Z,22.4
2019-04-14T10:27:41.101Z,22.4
2019-04-14T10:28:31.142Z,22.3
2019-04-14T10:29:21.221Z,22.3
2019-04-14T10:30:11.269Z,22.4
2019-04-14T10:31:01.329Z,22.3
2019-04-14T10:31:51.391Z,22.3
2019-04-14T10:32:41.444Z,22.3
2019-04-14T10:33:31.249Z,22.3
2019-04-14T10:34:21.306Z,22.3
2019-04-14T10:35:11.401Z,22.3
2019-04-14T10:36:01.703Z,22.3
2019-04-14T10:36:51.764Z,22.3
2019-04-14T10:37:41.616Z,22.3
2019-04-14T10:38:31.880Z,22.3
2019-04-14T10:39:21.661Z,22.3
2019-04-14T10:40:11.731Z,22.3
2019-04-14T10:41:02.075Z,22.3
2019-04-14T10:41:51.577Z,22.3
2019-04-14T10:42:42.177Z,22.3
2019-04-14T10:43:32.253Z,22.3
2019-04-14T10:44:22.032Z,22.3
2019-04-14T10:45:12.096Z,22.3
2019-04-14T10:46:02.455Z,22.3
2019-04-14T10:46:52.504Z,22.4
2019-04-14T10:47:42.543Z,22.3
2019-04-14T10:48:32.350Z,22.3
2019-04-14T10:49:22.687Z,22.3
2019-04-14T10:50:12.726Z,22.3
2019-04-14T10:51:02.794Z,22.3
2019-04-14T10:51:52.585Z,22.3
2019-04-14T10:52:42.650Z,22.3
2019-04-14T10:53:32.986Z,22.3
2019-04-14T10:54:22.499Z,22.3
2019-04-14T10:55:13.113Z,22.3
2019-04-14T10:56:02.892Z,22.3
2019-04-14T10:56:52.959Z,22.3
2019-04-14T10:57:43.283Z,22.3
2019-04-14T10:58:33.335Z,22.3
2019-04-14T10:59:23.411Z,22.3
2019-04-14T11:00:13.201Z,22.3
2019-04-14T11:01:03.531Z,22.3
2019-04-14T11:01:53.627Z,22.3
2019-04-14T11:02:43.372Z,22.3
2019-04-14T11:03:33.716Z,22.3
2019-04-14T11:04:23.759Z,22.3
2019-04-14T11:05:13.832Z,22.3
2019-04-14T11:06:03.624Z,22.3
2019-04-14T11:06:53.679Z,22.3
2019-04-14T11:07:43.759Z,22.3
2019-04-14T11:08:33.810Z,22.3
2019-04-14T11:09:23.857Z,22.3
2019-04-14T11:10:13.916Z,22.3
2019-04-14T11:11:04.249Z,22.3
2019-04-14T11:11:54.314Z,22.3
2019-04-14T11:12:44.383Z,22.3
2019-04-14T11:13:34.434Z,22.3
2019-04-14T11:14:24.223Z,22.3
2019-04-14T11:15:16.512Z,22.3
2019-04-14T11:16:04.627Z,22.3
2019-04-14T11:16:54.129Z,22.3
2019-04-14T11:17:44.746Z,22.3
2019-04-14T11:18:34.806Z,22.3
2019-04-14T11:19:24.863Z,22.3
2019-04-14T11:20:14.664Z,22.3
2019-04-14T11:21:04.714Z,22.3
2019-04-14T11:21:54.761Z,22.3
2019-04-14T11:22:44.856Z,22.3
2019-04-14T11:23:34.619Z,22.3
2019-04-14T11:24:25.001Z,22.3
2019-04-14T11:25:15.296Z,22.3
2019-04-14T11:26:05.096Z,22.3
2019-04-14T11:26:55.422Z,22.3
2019-04-14T11:27:45.471Z,22.3
2019-04-14T11:28:35.313Z,22.3
2019-04-14T11:29:25.588Z,22.3
2019-04-14T11:30:15.645Z,22.3
2019-04-14T11:31:05.450Z,22.3
2019-04-14T11:31:55.773Z,22.3
2019-04-14T11:32:45.560Z,22.3
2019-04-14T11:33:35.900Z,22.3
2019-04-14T11:34:25.955Z,22.3
2019-04-14T11:35:17.823Z,22.3
2019-04-14T11:36:06.086Z,22.3
2019-04-14T11:36:55.872Z,22.3
2019-04-14T11:37:45.938Z,22.3
2019-04-14T11:38:36.057Z,22.3
2019-04-14T11:39:26.056Z,22.3
2019-04-14T11:40:16.377Z,22.3
2019-04-14T11:41:06.455Z,22.3
2019-04-14T11:41:56.521Z,22.3
2019-04-14T11:42:53.521Z,22.3
2019-04-14T11:43:36.369Z,22.3
2019-04-14T11:44:26.475Z,22.3
2019-04-14T11:45:16.465Z,22.3
2019-04-14T11:46:06.582Z,22.3
2019-04-14T11:46:56.902Z,22.3
2019-04-14T11:47:46.664Z,22.3
2019-04-14T11:48:36.992Z,22.4
2019-04-14T11:49:27.049Z,22.4
2019-04-14T11:50:17.126Z,22.4
2019-04-14T11:51:07.169Z,22.4
2019-04-14T11:51:57.246Z,22.4
2019-04-14T11:52:47.296Z,22.4
2019-04-14T11:53:37.350Z,22.4
2019-04-14T11:54:27.430Z,22.4
2019-04-14T11:55:16.934Z,22.4
2019-04-14T11:56:07.612Z,22.4
2019-04-14T11:56:57.596Z,22.4
2019-04-14T11:57:47.482Z,22.4
2019-04-14T11:58:37.740Z,22.4
2019-04-14T11:59:27.236Z,22.4
2019-04-14T12:00:17.851Z,22.4
2019-04-14T12:01:07.622Z,22.4
2019-04-14T12:01:57.708Z,22.4
2019-04-14T12:02:47.790Z,22.4
2019-04-14T12:03:38.116Z,22.4
2019-04-14T12:05:59.141Z,22.4
2019-04-14T12:06:49.918Z,22.4
2019-04-14T12:07:39.530Z,22.4
2019-04-14T12:08:29.846Z,22.4
2019-04-14T12:09:19.891Z,22.4
2019-04-14T12:10:09.433Z,22.4
2019-04-14T12:10:59.768Z,22.4
2019-04-14T12:11:50.063Z,22.4
2019-04-14T12:12:39.621Z,22.4
2019-04-14T12:13:29.450Z,22.4
2019-04-14T12:14:20.023Z,22.4
2019-04-14T12:15:17.441Z,22.4
2019-04-14T12:15:59.860Z,22.4
2019-04-14T12:16:50.634Z,22.4
2019-04-14T12:17:39.980Z,22.4
2019-04-14T12:18:30.051Z,22.4
2019-04-14T12:19:20.382Z,22.4
2019-04-14T12:20:10.445Z,22.4
2019-04-14T12:21:00.513Z,22.4
2019-04-14T12:21:50.563Z,22.4
2019-04-14T12:22:40.348Z,22.3
2019-04-14T12:23:30.737Z,22.4
2019-04-14T12:24:20.500Z,22.4
2019-04-14T12:25:10.815Z,22.3
2019-04-14T12:26:06.800Z,22.3
2019-04-14T12:26:50.659Z,22.4
2019-04-14T12:27:41.971Z,22.3
2019-04-14T12:28:31.566Z,22.3
2019-04-14T12:29:23.543Z,22.4
2019-04-14T12:30:12.149Z,22.3
2019-04-14T12:31:02.472Z,22.4
2019-04-14T12:31:53.004Z,22.3
2019-04-14T12:32:41.365Z,22.3
2019-04-14T12:33:31.415Z,22.3
2019-04-14T12:34:21.481Z,22.3
2019-04-14T12:35:11.279Z,22.3
2019-04-14T12:36:01.625Z,22.3
2019-04-14T12:36:51.890Z,22.3
2019-04-14T12:37:41.724Z,22.3
2019-04-14T12:38:31.794Z,22.3
2019-04-14T12:39:21.319Z,22.4
2019-04-14T12:40:11.649Z,22.3
2019-04-14T12:41:06.106Z,22.4